sensor_id;sensor_type;location;lat;lon;timestamp;temperature;humidity
13344;DHT22;6741;48.964;9.406;2023-12-14T00:00:29;6.30;99.90
13344;DHT22;6741;48.964;9.406;2023-12-14T00:02:57;6.30;99.90
13344;DHT22;6741;48.964;9.406;2023-12-14T00:05:24;6.30;99.90
13344;DHT22;6741;48.964;9.406;2023-12-14T00:07:51;6.30;99.90
13344;DHT22;6741;48.964;9.406;2023-12-14T00:10:19;6.30;99.90
13344;DHT22;6741;48.964;9.406;2023-12-14T00:12:46;6.30;99.90
13344;DHT22;6741;48.964;9.406;2023-12-14T00:15:14;6.30;99.90
13344;DHT22;6741;48.964;9.406;2023-12-14T00:17:41;6.30;99.90
13344;DHT22;6741;48.964;9.406;2023-12-14T00:20:09;6.40;99.90
13344;DHT22;6741;48.964;9.406;2023-12-14T00:22:36;6.30;99.90
13344;DHT22;6741;48.964;9.406;2023-12-14T00:25:03;6.30;99.90
13344;DHT22;6741;48.964;9.406;2023-12-14T00:27:32;6.30;99.90
13344;DHT22;6741;48.964;9.406;2023-12-14T00:29:58;6.30;99.90
13344;DHT22;6741;48.964;9.406;2023-12-14T00:32:25;6.30;99.90
13344;DHT22;6741;48.964;9.406;2023-12-14T00:34:52;6.30;99.90
13344;DHT22;6741;48.964;9.406;2023-12-14T00:37:19;6.30;99.90
13344;DHT22;6741;48.964;9.406;2023-12-14T00:39:46;6.30;99.90
13344;DHT22;6741;48.964;9.406;2023-12-14T00:42:12;6.20;99.90
13344;DHT22;6741;48.964;9.406;2023-12-14T00:44:41;6.30;99.90
13344;DHT22;6741;48.964;9.406;2023-12-14T00:47:07;6.20;99.90
13344;DHT22;6741;48.964;9.406;2023-12-14T00:49:34;6.30;99.90
13344;DHT22;6741;48.964;9.406;2023-12-14T00:52:01;6.30;99.90
13344;DHT22;6741;48.964;9.406;2023-12-14T00:54:29;6.30;99.90
13344;DHT22;6741;48.964;9.406;2023-12-14T00:56:56;6.30;99.90
13344;DHT22;6741;48.964;9.406;2023-12-14T00:59:23;6.30;99.90
13344;DHT22;6741;48.964;9.406;2023-12-14T01:01:52;6.30;99.90
13344;DHT22;6741;48.964;9.406;2023-12-14T01:04:18;6.30;99.90
13344;DHT22;6741;48.964;9.406;2023-12-14T01:06:45;6.30;99.90
13344;DHT22;6741;48.964;9.406;2023-12-14T01:09:12;6.30;99.90
13344;DHT22;6741;48.964;9.406;2023-12-14T01:11:39;6.30;99.90
13344;DHT22;6741;48.964;9.406;2023-12-14T01:14:06;6.40;99.90
13344;DHT22;6741;48.964;9.406;2023-12-14T01:16:32;6.40;99.90
13344;DHT22;6741;48.964;9.406;2023-12-14T01:19:01;6.40;99.90
13344;DHT22;6741;48.964;9.406;2023-12-14T01:21:27;6.40;99.90
13344;DHT22;6741;48.964;9.406;2023-12-14T01:23:54;6.40;99.90
13344;DHT22;6741;48.964;9.406;2023-12-14T01:26:21;6.40;99.90
13344;DHT22;6741;48.964;9.406;2023-12-14T01:28:48;6.40;99.90
13344;DHT22;6741;48.964;9.406;2023-12-14T01:31:15;6.40;99.90
13344;DHT22;6741;48.964;9.406;2023-12-14T01:33:42;6.40;99.90
13344;DHT22;6741;48.964;9.406;2023-12-14T01:36:10;6.40;99.90
13344;DHT22;6741;48.964;9.406;2023-12-14T01:38:37;6.50;99.90
13344;DHT22;6741;48.964;9.406;2023-12-14T01:41:04;6.40;99.90
13344;DHT22;6741;48.964;9.406;2023-12-14T01:43:31;6.40;99.90
13344;DHT22;6741;48.964;9.406;2023-12-14T01:45:58;6.40;99.90
13344;DHT22;6741;48.964;9.406;2023-12-14T01:48:24;6.40;99.90
13344;DHT22;6741;48.964;9.406;2023-12-14T01:50:51;6.30;99.90
13344;DHT22;6741;48.964;9.406;2023-12-14T01:53:18;6.30;99.90
13344;DHT22;6741;48.964;9.406;2023-12-14T01:55:45;6.40;99.90
13344;DHT22;6741;48.964;9.406;2023-12-14T01:58:12;6.40;99.90
13344;DHT22;6741;48.964;9.406;2023-12-14T02:00:55;6.40;99.90
13344;DHT22;6741;48.964;9.406;2023-12-14T02:03:25;6.40;99.90
13344;DHT22;6741;48.964;9.406;2023-12-14T02:05:51;6.40;99.90
13344;DHT22;6741;48.964;9.406;2023-12-14T02:08:20;6.30;99.90
13344;DHT22;6741;48.964;9.406;2023-12-14T02:10:47;6.30;99.90
13344;DHT22;6741;48.964;9.406;2023-12-14T02:13:14;6.30;99.90
13344;DHT22;6741;48.964;9.406;2023-12-14T02:15:41;6.30;99.90
13344;DHT22;6741;48.964;9.406;2023-12-14T02:18:08;6.30;99.90
13344;DHT22;6741;48.964;9.406;2023-12-14T02:20:35;6.40;99.90
13344;DHT22;6741;48.964;9.406;2023-12-14T02:23:03;6.40;99.90
13344;DHT22;6741;48.964;9.406;2023-12-14T02:25:30;6.40;99.90
13344;DHT22;6741;48.964;9.406;2023-12-14T02:27:57;6.30;99.90
13344;DHT22;6741;48.964;9.406;2023-12-14T02:30:23;6.30;99.90
13344;DHT22;6741;48.964;9.406;2023-12-14T02:32:50;6.30;99.90
13344;DHT22;6741;48.964;9.406;2023-12-14T02:35:17;6.30;99.90
13344;DHT22;6741;48.964;9.406;2023-12-14T02:37:44;6.30;99.90
13344;DHT22;6741;48.964;9.406;2023-12-14T02:40:13;6.30;99.90
13344;DHT22;6741;48.964;9.406;2023-12-14T02:42:40;6.30;99.90
13344;DHT22;6741;48.964;9.406;2023-12-14T02:45:08;6.30;99.90
13344;DHT22;6741;48.964;9.406;2023-12-14T02:47:35;6.30;99.90
13344;DHT22;6741;48.964;9.406;2023-12-14T02:50:02;6.30;99.90
13344;DHT22;6741;48.964;9.406;2023-12-14T02:52:29;6.30;99.90
13344;DHT22;6741;48.964;9.406;2023-12-14T02:54:56;6.30;99.90
13344;DHT22;6741;48.964;9.406;2023-12-14T02:57:24;6.20;99.90
13344;DHT22;6741;48.964;9.406;2023-12-14T02:59:52;6.30;99.90
13344;DHT22;6741;48.964;9.406;2023-12-14T03:02:19;6.30;99.90
13344;DHT22;6741;48.964;9.406;2023-12-14T03:04:45;6.30;99.90
13344;DHT22;6741;48.964;9.406;2023-12-14T03:07:12;6.30;99.90
13344;DHT22;6741;48.964;9.406;2023-12-14T03:09:40;6.30;99.90
13344;DHT22;6741;48.964;9.406;2023-12-14T03:12:09;6.30;99.90
13344;DHT22;6741;48.964;9.406;2023-12-14T03:14:38;6.30;99.90
13344;DHT22;6741;48.964;9.406;2023-12-14T03:17:06;6.20;99.90
13344;DHT22;6741;48.964;9.406;2023-12-14T03:19:38;6.30;99.90
13344;DHT22;6741;48.964;9.406;2023-12-14T03:22:05;6.30;99.90
13344;DHT22;6741;48.964;9.406;2023-12-14T03:24:32;6.20;99.90
13344;DHT22;6741;48.964;9.406;2023-12-14T03:26:58;6.20;99.90
13344;DHT22;6741;48.964;9.406;2023-12-14T03:29:27;6.20;99.90
13344;DHT22;6741;48.964;9.406;2023-12-14T03:31:55;6.20;99.90
13344;DHT22;6741;48.964;9.406;2023-12-14T03:34:23;6.20;99.90
13344;DHT22;6741;48.964;9.406;2023-12-14T03:36:50;6.30;99.90
13344;DHT22;6741;48.964;9.406;2023-12-14T03:39:16;6.30;99.90
13344;DHT22;6741;48.964;9.406;2023-12-14T03:41:44;6.30;99.90
13344;DHT22;6741;48.964;9.406;2023-12-14T03:44:11;6.30;99.90
13344;DHT22;6741;48.964;9.406;2023-12-14T03:46:38;6.30;99.90
13344;DHT22;6741;48.964;9.406;2023-12-14T03:49:06;6.30;99.90
13344;DHT22;6741;48.964;9.406;2023-12-14T03:51:33;6.30;99.90
13344;DHT22;6741;48.964;9.406;2023-12-14T03:53:59;6.20;99.90
13344;DHT22;6741;48.964;9.406;2023-12-14T03:56:26;6.20;99.90
13344;DHT22;6741;48.964;9.406;2023-12-14T03:58:53;6.20;99.90
13344;DHT22;6741;48.964;9.406;2023-12-14T04:01:20;6.30;99.90
13344;DHT22;6741;48.964;9.406;2023-12-14T04:03:48;6.20;99.90
13344;DHT22;6741;48.964;9.406;2023-12-14T04:06:16;6.20;99.90
13344;DHT22;6741;48.964;9.406;2023-12-14T04:08:43;6.20;99.90
13344;DHT22;6741;48.964;9.406;2023-12-14T04:11:09;6.20;99.90
13344;DHT22;6741;48.964;9.406;2023-12-14T04:13:38;6.30;99.90
13344;DHT22;6741;48.964;9.406;2023-12-14T04:16:05;6.30;99.90
13344;DHT22;6741;48.964;9.406;2023-12-14T04:18:33;6.30;99.90
13344;DHT22;6741;48.964;9.406;2023-12-14T04:21:00;6.30;99.90
13344;DHT22;6741;48.964;9.406;2023-12-14T04:23:28;6.40;99.90
13344;DHT22;6741;48.964;9.406;2023-12-14T04:25:55;6.40;99.90
13344;DHT22;6741;48.964;9.406;2023-12-14T04:28:22;6.40;99.90
13344;DHT22;6741;48.964;9.406;2023-12-14T04:30:48;6.30;99.90
13344;DHT22;6741;48.964;9.406;2023-12-14T04:33:15;6.30;99.90
13344;DHT22;6741;48.964;9.406;2023-12-14T04:35:42;6.30;99.90
13344;DHT22;6741;48.964;9.406;2023-12-14T04:38:09;6.30;99.90
13344;DHT22;6741;48.964;9.406;2023-12-14T04:40:37;6.30;99.90
13344;DHT22;6741;48.964;9.406;2023-12-14T04:43:04;6.30;99.90
13344;DHT22;6741;48.964;9.406;2023-12-14T04:45:31;6.30;99.90
13344;DHT22;6741;48.964;9.406;2023-12-14T04:47:58;6.30;99.90
13344;DHT22;6741;48.964;9.406;2023-12-14T04:50:24;6.30;99.90
13344;DHT22;6741;48.964;9.406;2023-12-14T04:52:51;6.30;99.90
13344;DHT22;6741;48.964;9.406;2023-12-14T04:55:18;6.20;99.90
13344;DHT22;6741;48.964;9.406;2023-12-14T04:57:46;6.20;99.90
13344;DHT22;6741;48.964;9.406;2023-12-14T05:00:15;6.20;99.90
13344;DHT22;6741;48.964;9.406;2023-12-14T05:02:46;6.20;99.90
13344;DHT22;6741;48.964;9.406;2023-12-14T05:05:13;6.30;99.90
13344;DHT22;6741;48.964;9.406;2023-12-14T05:07:40;6.30;99.90
13344;DHT22;6741;48.964;9.406;2023-12-14T05:10:07;6.30;99.90
13344;DHT22;6741;48.964;9.406;2023-12-14T05:12:36;6.30;99.90
13344;DHT22;6741;48.964;9.406;2023-12-14T05:15:04;6.30;99.90
13344;DHT22;6741;48.964;9.406;2023-12-14T05:17:31;6.20;99.90
13344;DHT22;6741;48.964;9.406;2023-12-14T05:19:58;6.30;99.90
13344;DHT22;6741;48.964;9.406;2023-12-14T05:22:25;6.30;99.90
13344;DHT22;6741;48.964;9.406;2023-12-14T05:24:53;6.30;99.90
13344;DHT22;6741;48.964;9.406;2023-12-14T05:27:20;6.30;99.90
13344;DHT22;6741;48.964;9.406;2023-12-14T05:29:47;6.30;99.90
13344;DHT22;6741;48.964;9.406;2023-12-14T05:32:15;6.30;99.90
13344;DHT22;6741;48.964;9.406;2023-12-14T05:34:42;6.30;99.90
13344;DHT22;6741;48.964;9.406;2023-12-14T05:37:09;6.30;99.90
13344;DHT22;6741;48.964;9.406;2023-12-14T05:39:36;6.30;99.90
13344;DHT22;6741;48.964;9.406;2023-12-14T05:42:03;6.30;99.90
13344;DHT22;6741;48.964;9.406;2023-12-14T05:44:30;6.30;99.90
13344;DHT22;6741;48.964;9.406;2023-12-14T05:46:58;6.30;99.90
13344;DHT22;6741;48.964;9.406;2023-12-14T05:49:27;6.30;99.90
13344;DHT22;6741;48.964;9.406;2023-12-14T05:51:57;6.30;99.90
13344;DHT22;6741;48.964;9.406;2023-12-14T05:54:25;6.30;99.90
13344;DHT22;6741;48.964;9.406;2023-12-14T05:56:52;6.30;99.90
13344;DHT22;6741;48.964;9.406;2023-12-14T05:59:18;6.30;99.90
13344;DHT22;6741;48.964;9.406;2023-12-14T06:01:45;6.30;99.90
13344;DHT22;6741;48.964;9.406;2023-12-14T06:04:13;6.30;99.90
13344;DHT22;6741;48.964;9.406;2023-12-14T06:06:41;6.30;99.90
13344;DHT22;6741;48.964;9.406;2023-12-14T06:09:08;6.30;99.90
13344;DHT22;6741;48.964;9.406;2023-12-14T06:11:35;6.30;99.90
13344;DHT22;6741;48.964;9.406;2023-12-14T06:14:02;6.30;99.90
13344;DHT22;6741;48.964;9.406;2023-12-14T06:16:29;6.40;99.90
13344;DHT22;6741;48.964;9.406;2023-12-14T06:18:56;6.40;99.90
13344;DHT22;6741;48.964;9.406;2023-12-14T06:21:23;6.40;99.90
13344;DHT22;6741;48.964;9.406;2023-12-14T06:23:53;6.30;99.90
13344;DHT22;6741;48.964;9.406;2023-12-14T06:26:20;6.30;99.90
13344;DHT22;6741;48.964;9.406;2023-12-14T06:28:47;6.40;99.90
13344;DHT22;6741;48.964;9.406;2023-12-14T06:31:14;6.40;99.90
13344;DHT22;6741;48.964;9.406;2023-12-14T06:33:41;6.40;99.90
13344;DHT22;6741;48.964;9.406;2023-12-14T06:36:08;6.40;99.90
13344;DHT22;6741;48.964;9.406;2023-12-14T06:38:38;6.40;99.90
13344;DHT22;6741;48.964;9.406;2023-12-14T06:41:06;6.40;99.90
13344;DHT22;6741;48.964;9.406;2023-12-14T06:43:34;6.40;99.90
13344;DHT22;6741;48.964;9.406;2023-12-14T06:46:01;6.50;99.90
13344;DHT22;6741;48.964;9.406;2023-12-14T06:48:28;6.50;99.90
13344;DHT22;6741;48.964;9.406;2023-12-14T06:50:53;6.50;99.90
13344;DHT22;6741;48.964;9.406;2023-12-14T06:53:21;6.50;99.90
13344;DHT22;6741;48.964;9.406;2023-12-14T06:55:48;6.50;99.90
13344;DHT22;6741;48.964;9.406;2023-12-14T06:58:16;6.50;99.90
13344;DHT22;6741;48.964;9.406;2023-12-14T07:00:46;6.50;99.90
13344;DHT22;6741;48.964;9.406;2023-12-14T07:03:13;6.50;99.90
13344;DHT22;6741;48.964;9.406;2023-12-14T07:05:40;6.40;99.90
13344;DHT22;6741;48.964;9.406;2023-12-14T07:08:07;6.40;99.90
13344;DHT22;6741;48.964;9.406;2023-12-14T07:10:34;6.40;99.90
13344;DHT22;6741;48.964;9.406;2023-12-14T07:13:01;6.40;99.90
13344;DHT22;6741;48.964;9.406;2023-12-14T07:15:29;6.40;99.90
13344;DHT22;6741;48.964;9.406;2023-12-14T07:17:56;6.40;99.90
13344;DHT22;6741;48.964;9.406;2023-12-14T07:20:22;6.50;99.90
13344;DHT22;6741;48.964;9.406;2023-12-14T07:22:50;6.50;99.90
13344;DHT22;6741;48.964;9.406;2023-12-14T07:25:17;6.50;99.90
13344;DHT22;6741;48.964;9.406;2023-12-14T07:27:44;6.50;99.90
13344;DHT22;6741;48.964;9.406;2023-12-14T07:30:12;6.50;99.90
13344;DHT22;6741;48.964;9.406;2023-12-14T07:32:41;6.50;99.90
13344;DHT22;6741;48.964;9.406;2023-12-14T07:35:08;6.50;99.90
13344;DHT22;6741;48.964;9.406;2023-12-14T07:37:35;6.50;99.90
13344;DHT22;6741;48.964;9.406;2023-12-14T07:40:03;6.60;99.90
13344;DHT22;6741;48.964;9.406;2023-12-14T07:42:30;6.60;99.90
13344;DHT22;6741;48.964;9.406;2023-12-14T07:44:57;6.60;99.90
13344;DHT22;6741;48.964;9.406;2023-12-14T07:47:24;6.60;99.90
13344;DHT22;6741;48.964;9.406;2023-12-14T07:49:52;6.60;99.90
13344;DHT22;6741;48.964;9.406;2023-12-14T07:52:19;6.60;99.90
13344;DHT22;6741;48.964;9.406;2023-12-14T07:54:46;6.60;99.90
13344;DHT22;6741;48.964;9.406;2023-12-14T07:57:13;6.60;99.90
13344;DHT22;6741;48.964;9.406;2023-12-14T07:59:40;6.60;99.90
13344;DHT22;6741;48.964;9.406;2023-12-14T08:02:06;6.70;99.90
13344;DHT22;6741;48.964;9.406;2023-12-14T08:04:33;6.60;99.90
13344;DHT22;6741;48.964;9.406;2023-12-14T08:07:02;6.70;99.90
13344;DHT22;6741;48.964;9.406;2023-12-14T08:09:28;6.70;99.90
13344;DHT22;6741;48.964;9.406;2023-12-14T08:11:55;6.70;99.90
13344;DHT22;6741;48.964;9.406;2023-12-14T08:14:22;6.80;99.90
13344;DHT22;6741;48.964;9.406;2023-12-14T08:16:50;6.80;99.90
13344;DHT22;6741;48.964;9.406;2023-12-14T08:19:17;6.80;99.90
13344;DHT22;6741;48.964;9.406;2023-12-14T08:21:44;6.80;99.90
13344;DHT22;6741;48.964;9.406;2023-12-14T08:24:12;6.90;99.90
13344;DHT22;6741;48.964;9.406;2023-12-14T08:26:39;6.80;99.90
13344;DHT22;6741;48.964;9.406;2023-12-14T08:29:06;6.80;99.90
13344;DHT22;6741;48.964;9.406;2023-12-14T08:31:32;6.90;99.90
13344;DHT22;6741;48.964;9.406;2023-12-14T08:33:59;6.90;99.90
13344;DHT22;6741;48.964;9.406;2023-12-14T08:36:26;6.90;99.90
13344;DHT22;6741;48.964;9.406;2023-12-14T08:38:53;7.00;99.90
13344;DHT22;6741;48.964;9.406;2023-12-14T08:41:21;7.00;99.90
13344;DHT22;6741;48.964;9.406;2023-12-14T08:43:48;7.00;99.90
13344;DHT22;6741;48.964;9.406;2023-12-14T08:46:15;7.10;99.90
13344;DHT22;6741;48.964;9.406;2023-12-14T08:48:42;7.00;99.90
13344;DHT22;6741;48.964;9.406;2023-12-14T08:51:08;7.00;99.90
13344;DHT22;6741;48.964;9.406;2023-12-14T08:53:35;7.00;99.90
13344;DHT22;6741;48.964;9.406;2023-12-14T08:56:03;7.00;99.90
13344;DHT22;6741;48.964;9.406;2023-12-14T08:58:31;7.00;99.90
13344;DHT22;6741;48.964;9.406;2023-12-14T09:00:58;7.00;99.90
13344;DHT22;6741;48.964;9.406;2023-12-14T09:03:24;7.10;99.90
13344;DHT22;6741;48.964;9.406;2023-12-14T09:05:52;7.10;99.90
13344;DHT22;6741;48.964;9.406;2023-12-14T09:08:19;7.20;99.90
13344;DHT22;6741;48.964;9.406;2023-12-14T09:10:46;7.20;99.90
13344;DHT22;6741;48.964;9.406;2023-12-14T09:13:13;7.30;99.90
13344;DHT22;6741;48.964;9.406;2023-12-14T09:15:41;7.30;99.90
13344;DHT22;6741;48.964;9.406;2023-12-14T09:18:08;7.40;99.90
13344;DHT22;6741;48.964;9.406;2023-12-14T09:20:35;7.40;99.90
13344;DHT22;6741;48.964;9.406;2023-12-14T09:23:03;7.40;99.90
13344;DHT22;6741;48.964;9.406;2023-12-14T09:25:29;7.40;99.90
13344;DHT22;6741;48.964;9.406;2023-12-14T09:27:56;7.40;99.90
13344;DHT22;6741;48.964;9.406;2023-12-14T09:30:23;7.60;99.90
13344;DHT22;6741;48.964;9.406;2023-12-14T09:32:52;7.70;99.90
13344;DHT22;6741;48.964;9.406;2023-12-14T09:35:19;7.70;99.90
13344;DHT22;6741;48.964;9.406;2023-12-14T09:37:52;7.70;99.90
13344;DHT22;6741;48.964;9.406;2023-12-14T09:40:22;7.70;99.90
13344;DHT22;6741;48.964;9.406;2023-12-14T09:42:49;7.80;99.90
13344;DHT22;6741;48.964;9.406;2023-12-14T09:45:17;7.60;99.90
13344;DHT22;6741;48.964;9.406;2023-12-14T09:47:44;7.60;99.90
13344;DHT22;6741;48.964;9.406;2023-12-14T09:50:14;7.60;99.90
13344;DHT22;6741;48.964;9.406;2023-12-14T09:52:42;7.60;99.90
13344;DHT22;6741;48.964;9.406;2023-12-14T09:55:10;7.50;99.90
13344;DHT22;6741;48.964;9.406;2023-12-14T09:57:37;7.50;99.90
13344;DHT22;6741;48.964;9.406;2023-12-14T10:00:05;7.50;99.90
13344;DHT22;6741;48.964;9.406;2023-12-14T10:02:36;7.50;99.90
13344;DHT22;6741;48.964;9.406;2023-12-14T10:05:06;7.50;99.90
13344;DHT22;6741;48.964;9.406;2023-12-14T10:07:40;7.60;99.90
13344;DHT22;6741;48.964;9.406;2023-12-14T10:10:11;7.60;99.90
13344;DHT22;6741;48.964;9.406;2023-12-14T10:12:50;7.60;99.90
13344;DHT22;6741;48.964;9.406;2023-12-14T10:15:18;7.70;99.90
13344;DHT22;6741;48.964;9.406;2023-12-14T10:17:45;7.70;99.90
13344;DHT22;6741;48.964;9.406;2023-12-14T10:20:19;7.70;99.90
13344;DHT22;6741;48.964;9.406;2023-12-14T10:22:49;7.70;99.90
13344;DHT22;6741;48.964;9.406;2023-12-14T10:25:18;7.70;99.90
13344;DHT22;6741;48.964;9.406;2023-12-14T10:27:46;7.70;99.90
13344;DHT22;6741;48.964;9.406;2023-12-14T10:30:14;7.60;99.90
13344;DHT22;6741;48.964;9.406;2023-12-14T10:32:41;7.60;99.90
13344;DHT22;6741;48.964;9.406;2023-12-14T10:35:09;7.60;99.90
13344;DHT22;6741;48.964;9.406;2023-12-14T10:37:38;7.60;99.90
13344;DHT22;6741;48.964;9.406;2023-12-14T10:40:07;7.50;99.90
13344;DHT22;6741;48.964;9.406;2023-12-14T10:42:36;7.60;99.90
13344;DHT22;6741;48.964;9.406;2023-12-14T10:45:04;7.60;99.90
13344;DHT22;6741;48.964;9.406;2023-12-14T10:47:32;7.60;99.90
13344;DHT22;6741;48.964;9.406;2023-12-14T10:50:00;7.50;99.90
13344;DHT22;6741;48.964;9.406;2023-12-14T10:52:27;7.50;99.90
13344;DHT22;6741;48.964;9.406;2023-12-14T10:55:00;7.50;99.90
13344;DHT22;6741;48.964;9.406;2023-12-14T10:57:29;7.60;99.90
13344;DHT22;6741;48.964;9.406;2023-12-14T10:59:58;7.60;99.90
13344;DHT22;6741;48.964;9.406;2023-12-14T11:02:25;7.60;99.90
13344;DHT22;6741;48.964;9.406;2023-12-14T11:04:54;7.60;99.90
13344;DHT22;6741;48.964;9.406;2023-12-14T11:07:46;7.70;99.90
13344;DHT22;6741;48.964;9.406;2023-12-14T11:10:13;7.60;99.90
13344;DHT22;6741;48.964;9.406;2023-12-14T11:13:02;7.60;99.90
13344;DHT22;6741;48.964;9.406;2023-12-14T11:15:30;7.60;99.90
13344;DHT22;6741;48.964;9.406;2023-12-14T11:18:27;7.60;99.90
13344;DHT22;6741;48.964;9.406;2023-12-14T11:20:55;7.60;99.90
13344;DHT22;6741;48.964;9.406;2023-12-14T11:23:43;7.60;99.90
13344;DHT22;6741;48.964;9.406;2023-12-14T11:26:10;7.70;99.90
13344;DHT22;6741;48.964;9.406;2023-12-14T11:28:40;7.80;99.90
13344;DHT22;6741;48.964;9.406;2023-12-14T11:31:10;7.80;99.90
13344;DHT22;6741;48.964;9.406;2023-12-14T11:33:38;7.70;99.90
13344;DHT22;6741;48.964;9.406;2023-12-14T11:36:05;7.80;99.90
13344;DHT22;6741;48.964;9.406;2023-12-14T11:38:35;7.80;99.90
13344;DHT22;6741;48.964;9.406;2023-12-14T11:41:02;7.80;99.90
13344;DHT22;6741;48.964;9.406;2023-12-14T11:43:29;7.80;99.90
13344;DHT22;6741;48.964;9.406;2023-12-14T11:45:57;7.80;99.90
13344;DHT22;6741;48.964;9.406;2023-12-14T11:48:24;7.70;99.90
13344;DHT22;6741;48.964;9.406;2023-12-14T11:50:51;7.80;99.90
13344;DHT22;6741;48.964;9.406;2023-12-14T11:53:18;7.80;99.90
13344;DHT22;6741;48.964;9.406;2023-12-14T11:55:45;7.80;99.90
13344;DHT22;6741;48.964;9.406;2023-12-14T11:58:12;7.80;99.90
13344;DHT22;6741;48.964;9.406;2023-12-14T12:00:40;7.70;99.90
13344;DHT22;6741;48.964;9.406;2023-12-14T12:03:10;7.70;99.90
13344;DHT22;6741;48.964;9.406;2023-12-14T12:05:39;7.70;99.90
13344;DHT22;6741;48.964;9.406;2023-12-14T12:08:06;7.70;99.90
13344;DHT22;6741;48.964;9.406;2023-12-14T12:10:33;7.60;99.90
13344;DHT22;6741;48.964;9.406;2023-12-14T12:13:02;7.60;99.90
13344;DHT22;6741;48.964;9.406;2023-12-14T12:15:31;7.70;99.90
13344;DHT22;6741;48.964;9.406;2023-12-14T12:17:58;7.80;99.90
13344;DHT22;6741;48.964;9.406;2023-12-14T12:20:26;7.80;99.90
13344;DHT22;6741;48.964;9.406;2023-12-14T12:22:53;7.90;99.90
13344;DHT22;6741;48.964;9.406;2023-12-14T12:25:21;7.90;99.90
13344;DHT22;6741;48.964;9.406;2023-12-14T12:27:48;7.90;99.90
13344;DHT22;6741;48.964;9.406;2023-12-14T12:30:15;7.90;99.90
13344;DHT22;6741;48.964;9.406;2023-12-14T12:32:42;8.00;99.90
13344;DHT22;6741;48.964;9.406;2023-12-14T12:35:09;8.00;99.90
13344;DHT22;6741;48.964;9.406;2023-12-14T12:37:38;7.90;99.90
13344;DHT22;6741;48.964;9.406;2023-12-14T12:40:06;7.90;99.90
13344;DHT22;6741;48.964;9.406;2023-12-14T12:42:33;7.90;99.90
13344;DHT22;6741;48.964;9.406;2023-12-14T12:45:00;7.90;99.90
13344;DHT22;6741;48.964;9.406;2023-12-14T12:47:27;7.80;99.90
13344;DHT22;6741;48.964;9.406;2023-12-14T12:49:54;7.80;99.90
13344;DHT22;6741;48.964;9.406;2023-12-14T12:52:21;7.80;99.90
13344;DHT22;6741;48.964;9.406;2023-12-14T12:54:49;7.80;99.90
13344;DHT22;6741;48.964;9.406;2023-12-14T12:57:16;7.70;99.90
13344;DHT22;6741;48.964;9.406;2023-12-14T12:59:43;7.70;99.90
13344;DHT22;6741;48.964;9.406;2023-12-14T13:02:11;7.70;99.90
13344;DHT22;6741;48.964;9.406;2023-12-14T13:04:38;7.70;99.90
13344;DHT22;6741;48.964;9.406;2023-12-14T13:07:05;7.70;99.90
13344;DHT22;6741;48.964;9.406;2023-12-14T13:09:31;7.60;99.90
13344;DHT22;6741;48.964;9.406;2023-12-14T13:12:00;7.40;99.90
13344;DHT22;6741;48.964;9.406;2023-12-14T13:14:27;7.00;99.90
13344;DHT22;6741;48.964;9.406;2023-12-14T13:16:53;6.70;99.90
13344;DHT22;6741;48.964;9.406;2023-12-14T13:19:20;6.50;99.90
13344;DHT22;6741;48.964;9.406;2023-12-14T13:21:48;6.40;99.90
13344;DHT22;6741;48.964;9.406;2023-12-14T13:24:15;6.30;99.90
13344;DHT22;6741;48.964;9.406;2023-12-14T13:26:42;6.30;99.90
13344;DHT22;6741;48.964;9.406;2023-12-14T13:29:10;6.30;99.90
13344;DHT22;6741;48.964;9.406;2023-12-14T13:31:37;6.30;99.90
13344;DHT22;6741;48.964;9.406;2023-12-14T13:34:04;6.30;99.90
13344;DHT22;6741;48.964;9.406;2023-12-14T13:36:31;6.40;99.90
13344;DHT22;6741;48.964;9.406;2023-12-14T13:38:58;6.40;99.90
13344;DHT22;6741;48.964;9.406;2023-12-14T13:41:27;6.40;99.90
13344;DHT22;6741;48.964;9.406;2023-12-14T13:43:59;6.50;99.90
13344;DHT22;6741;48.964;9.406;2023-12-14T13:46:27;6.60;99.90
13344;DHT22;6741;48.964;9.406;2023-12-14T13:48:54;6.60;99.90
13344;DHT22;6741;48.964;9.406;2023-12-14T13:51:21;6.60;99.90
13344;DHT22;6741;48.964;9.406;2023-12-14T13:53:48;6.60;99.90
13344;DHT22;6741;48.964;9.406;2023-12-14T13:56:14;6.60;99.90
13344;DHT22;6741;48.964;9.406;2023-12-14T13:58:41;6.80;99.90
13344;DHT22;6741;48.964;9.406;2023-12-14T14:01:08;6.90;99.90
13344;DHT22;6741;48.964;9.406;2023-12-14T14:03:36;6.90;99.90
13344;DHT22;6741;48.964;9.406;2023-12-14T14:06:04;6.90;99.90
13344;DHT22;6741;48.964;9.406;2023-12-14T14:08:31;6.90;99.90
13344;DHT22;6741;48.964;9.406;2023-12-14T14:10:58;6.90;99.90
13344;DHT22;6741;48.964;9.406;2023-12-14T14:13:26;6.90;99.90
13344;DHT22;6741;48.964;9.406;2023-12-14T14:15:53;6.80;99.90
13344;DHT22;6741;48.964;9.406;2023-12-14T14:18:20;6.90;99.90
13344;DHT22;6741;48.964;9.406;2023-12-14T14:20:48;6.80;99.90
13344;DHT22;6741;48.964;9.406;2023-12-14T14:23:15;6.90;99.90
13344;DHT22;6741;48.964;9.406;2023-12-14T14:25:42;6.90;99.90
13344;DHT22;6741;48.964;9.406;2023-12-14T14:28:09;6.90;99.90
13344;DHT22;6741;48.964;9.406;2023-12-14T14:30:36;6.80;99.90
13344;DHT22;6741;48.964;9.406;2023-12-14T14:33:03;6.80;99.90
13344;DHT22;6741;48.964;9.406;2023-12-14T14:35:31;6.80;99.90
13344;DHT22;6741;48.964;9.406;2023-12-14T14:38:00;6.80;99.90
13344;DHT22;6741;48.964;9.406;2023-12-14T14:40:27;6.80;99.90
13344;DHT22;6741;48.964;9.406;2023-12-14T14:42:54;6.80;99.90
13344;DHT22;6741;48.964;9.406;2023-12-14T14:45:21;6.80;99.90
13344;DHT22;6741;48.964;9.406;2023-12-14T14:47:48;6.80;99.90
13344;DHT22;6741;48.964;9.406;2023-12-14T14:50:15;6.80;99.90
13344;DHT22;6741;48.964;9.406;2023-12-14T14:52:42;6.80;99.90
13344;DHT22;6741;48.964;9.406;2023-12-14T14:55:10;6.80;99.90
13344;DHT22;6741;48.964;9.406;2023-12-14T14:57:37;6.80;99.90
13344;DHT22;6741;48.964;9.406;2023-12-14T15:00:05;6.80;99.90
13344;DHT22;6741;48.964;9.406;2023-12-14T15:02:32;6.80;99.90
13344;DHT22;6741;48.964;9.406;2023-12-14T15:04:59;6.80;99.90
13344;DHT22;6741;48.964;9.406;2023-12-14T15:07:25;6.80;99.90
13344;DHT22;6741;48.964;9.406;2023-12-14T15:09:54;6.80;99.90
13344;DHT22;6741;48.964;9.406;2023-12-14T15:12:22;6.80;99.90
13344;DHT22;6741;48.964;9.406;2023-12-14T15:14:49;6.80;99.90
13344;DHT22;6741;48.964;9.406;2023-12-14T15:17:16;6.80;99.90
13344;DHT22;6741;48.964;9.406;2023-12-14T15:19:44;6.80;99.90
13344;DHT22;6741;48.964;9.406;2023-12-14T15:22:12;6.80;99.90
13344;DHT22;6741;48.964;9.406;2023-12-14T15:24:39;6.80;99.90
13344;DHT22;6741;48.964;9.406;2023-12-14T15:27:05;6.80;99.90
13344;DHT22;6741;48.964;9.406;2023-12-14T15:29:34;6.80;99.90
13344;DHT22;6741;48.964;9.406;2023-12-14T15:32:00;6.70;99.90
13344;DHT22;6741;48.964;9.406;2023-12-14T15:34:29;6.70;99.90
13344;DHT22;6741;48.964;9.406;2023-12-14T15:36:55;6.70;99.90
13344;DHT22;6741;48.964;9.406;2023-12-14T15:39:22;6.70;99.90
13344;DHT22;6741;48.964;9.406;2023-12-14T15:41:49;6.70;99.90
13344;DHT22;6741;48.964;9.406;2023-12-14T15:44:16;6.70;99.90
13344;DHT22;6741;48.964;9.406;2023-12-14T15:46:44;6.70;99.90
13344;DHT22;6741;48.964;9.406;2023-12-14T15:49:12;6.70;99.90
13344;DHT22;6741;48.964;9.406;2023-12-14T15:51:39;6.70;99.90
13344;DHT22;6741;48.964;9.406;2023-12-14T15:54:07;6.70;99.90
13344;DHT22;6741;48.964;9.406;2023-12-14T15:56:33;6.70;99.90
13344;DHT22;6741;48.964;9.406;2023-12-14T15:59:00;6.60;99.90
13344;DHT22;6741;48.964;9.406;2023-12-14T16:01:27;6.70;99.90
13344;DHT22;6741;48.964;9.406;2023-12-14T16:03:55;6.70;99.90